sensor_id;sensor_type;location;lat;lon;timestamp;P1;durP1;ratioP1;P2;durP2;ratioP2
71715;SDS011;59568;52.128;5.434;2022-10-30T00:00:27;14.27;;;6.28;;
71715;SDS011;59568;52.128;5.434;2022-10-30T00:02:55;10.63;;;5.82;;
71715;SDS011;59568;52.128;5.434;2022-10-30T00:05:22;9.87;;;4.93;;
71715;SDS011;59568;52.128;5.434;2022-10-30T00:07:49;13.38;;;5.35;;
71715;SDS011;59568;52.128;5.434;2022-10-30T00:10:17;12.23;;;5.45;;
71715;SDS011;59568;52.128;5.434;2022-10-30T00:12:44;12.63;;;5.60;;
71715;SDS011;59568;52.128;5.434;2022-10-30T00:15:11;12.10;;;5.70;;
71715;SDS011;59568;52.128;5.434;2022-10-30T00:17:40;10.40;;;5.43;;
71715;SDS011;59568;52.128;5.434;2022-10-30T00:20:07;11.23;;;5.70;;
71715;SDS011;59568;52.128;5.434;2022-10-30T00:22:34;13.45;;;6.10;;
71715;SDS011;59568;52.128;5.434;2022-10-30T00:25:05;12.40;;;5.70;;
71715;SDS011;59568;52.128;5.434;2022-10-30T00:27:32;11.35;;;5.70;;
71715;SDS011;59568;52.128;5.434;2022-10-30T00:29:59;13.63;;;5.10;;
71715;SDS011;59568;52.128;5.434;2022-10-30T00:32:26;12.02;;;5.57;;
71715;SDS011;59568;52.128;5.434;2022-10-30T00:34:53;12.10;;;5.40;;
71715;SDS011;59568;52.128;5.434;2022-10-30T00:37:20;13.27;;;5.80;;
71715;SDS011;59568;52.128;5.434;2022-10-30T00:39:47;10.02;;;5.43;;
71715;SDS011;59568;52.128;5.434;2022-10-30T00:42:15;11.73;;;5.13;;
71715;SDS011;59568;52.128;5.434;2022-10-30T00:49:47;13.50;;;6.15;;
71715;SDS011;59568;52.128;5.434;2022-10-30T00:52:19;15.52;;;6.43;;
71715;SDS011;59568;52.128;5.434;2022-10-30T00:54:48;13.07;;;5.90;;
71715;SDS011;59568;52.128;5.434;2022-10-30T00:57:16;11.98;;;5.75;;
71715;SDS011;59568;52.128;5.434;2022-10-30T00:59:44;12.18;;;5.70;;
71715;SDS011;59568;52.128;5.434;2022-10-30T01:02:11;10.90;;;5.68;;
71715;SDS011;59568;52.128;5.434;2022-10-30T01:04:38;11.23;;;5.28;;
71715;SDS011;59568;52.128;5.434;2022-10-30T01:07:09;12.57;;;5.60;;
71715;SDS011;59568;52.128;5.434;2022-10-30T01:09:39;15.38;;;6.47;;
71715;SDS011;59568;52.128;5.434;2022-10-30T01:12:07;14.02;;;5.70;;
71715;SDS011;59568;52.128;5.434;2022-10-30T01:14:35;8.60;;;5.22;;
71715;SDS011;59568;52.128;5.434;2022-10-30T01:19:47;10.70;;;5.53;;
71715;SDS011;59568;52.128;5.434;2022-10-30T01:25:51;10.05;;;5.45;;
71715;SDS011;59568;52.128;5.434;2022-10-30T01:28:32;15.18;;;4.95;;
71715;SDS011;59568;52.128;5.434;2022-10-30T01:33:54;9.83;;;5.20;;
71715;SDS011;59568;52.128;5.434;2022-10-30T01:36:36;12.68;;;5.25;;
71715;SDS011;59568;52.128;5.434;2022-10-30T01:39:14;13.52;;;6.15;;
71715;SDS011;59568;52.128;5.434;2022-10-30T01:41:45;10.40;;;5.63;;
71715;SDS011;59568;52.128;5.434;2022-10-30T01:44:13;11.45;;;5.55;;
71715;SDS011;59568;52.128;5.434;2022-10-30T01:52:24;14.27;;;5.55;;
71715;SDS011;59568;52.128;5.434;2022-10-30T01:55:05;12.85;;;5.38;;
71715;SDS011;59568;52.128;5.434;2022-10-30T01:58:05;12.10;;;6.00;;
71715;SDS011;59568;52.128;5.434;2022-10-30T02:00:53;11.57;;;6.27;;
71715;SDS011;59568;52.128;5.434;2022-10-30T02:03:24;12.45;;;5.45;;
71715;SDS011;59568;52.128;5.434;2022-10-30T02:05:52;13.40;;;5.38;;
71715;SDS011;59568;52.128;5.434;2022-10-30T02:08:22;12.45;;;6.05;;
71715;SDS011;59568;52.128;5.434;2022-10-30T02:10:50;14.55;;;6.13;;
71715;SDS011;59568;52.128;5.434;2022-10-30T02:13:19;9.97;;;5.33;;
71715;SDS011;59568;52.128;5.434;2022-10-30T02:15:46;11.38;;;5.07;;
71715;SDS011;59568;52.128;5.434;2022-10-30T02:18:14;10.43;;;4.75;;
71715;SDS011;59568;52.128;5.434;2022-10-30T02:20:41;10.35;;;5.20;;
71715;SDS011;59568;52.128;5.434;2022-10-30T02:23:08;11.73;;;5.50;;
71715;SDS011;59568;52.128;5.434;2022-10-30T02:25:39;13.07;;;4.97;;
71715;SDS011;59568;52.128;5.434;2022-10-30T02:28:06;12.73;;;5.82;;
71715;SDS011;59568;52.128;5.434;2022-10-30T02:30:32;13.05;;;5.45;;
71715;SDS011;59568;52.128;5.434;2022-10-30T02:32:59;9.15;;;5.18;;
71715;SDS011;59568;52.128;5.434;2022-10-30T02:35:28;11.80;;;5.35;;
71715;SDS011;59568;52.128;5.434;2022-10-30T02:37:55;7.87;;;5.03;;
71715;SDS011;59568;52.128;5.434;2022-10-30T02:40:22;11.23;;;6.00;;
71715;SDS011;59568;52.128;5.434;2022-10-30T02:42:52;10.85;;;5.75;;
71715;SDS011;59568;52.128;5.434;2022-10-30T02:45:20;8.68;;;5.00;;
71715;SDS011;59568;52.128;5.434;2022-10-30T02:47:47;10.50;;;4.82;;
71715;SDS011;59568;52.128;5.434;2022-10-30T02:50:15;13.33;;;5.67;;
71715;SDS011;59568;52.128;5.434;2022-10-30T02:52:42;11.35;;;5.35;;
71715;SDS011;59568;52.128;5.434;2022-10-30T02:55:09;14.80;;;5.68;;
71715;SDS011;59568;52.128;5.434;2022-10-30T02:57:36;10.23;;;4.60;;
71715;SDS011;59568;52.128;5.434;2022-10-30T03:00:03;10.40;;;5.13;;
71715;SDS011;59568;52.128;5.434;2022-10-30T03:02:30;9.60;;;4.10;;
71715;SDS011;59568;52.128;5.434;2022-10-30T03:04:57;8.48;;;5.10;;
71715;SDS011;59568;52.128;5.434;2022-10-30T03:07:24;10.23;;;4.80;;
71715;SDS011;59568;52.128;5.434;2022-10-30T03:09:51;8.80;;;4.68;;
71715;SDS011;59568;52.128;5.434;2022-10-30T03:12:20;10.45;;;5.13;;
71715;SDS011;59568;52.128;5.434;2022-10-30T03:14:47;11.43;;;5.10;;
71715;SDS011;59568;52.128;5.434;2022-10-30T03:17:14;10.02;;;5.03;;
71715;SDS011;59568;52.128;5.434;2022-10-30T03:19:41;10.60;;;4.93;;
71715;SDS011;59568;52.128;5.434;2022-10-30T03:22:08;10.48;;;5.80;;
71715;SDS011;59568;52.128;5.434;2022-10-30T03:24:35;11.73;;;5.35;;
71715;SDS011;59568;52.128;5.434;2022-10-30T03:27:01;11.47;;;5.27;;
71715;SDS011;59568;52.128;5.434;2022-10-30T03:29:28;9.77;;;4.50;;
71715;SDS011;59568;52.128;5.434;2022-10-30T03:31:55;8.38;;;4.07;;
71715;SDS011;59568;52.128;5.434;2022-10-30T03:34:22;11.68;;;5.47;;
71715;SDS011;59568;52.128;5.434;2022-10-30T03:36:49;9.75;;;5.68;;
71715;SDS011;59568;52.128;5.434;2022-10-30T03:39:16;9.93;;;5.90;;
71715;SDS011;59568;52.128;5.434;2022-10-30T03:41:42;14.63;;;5.40;;
71715;SDS011;59568;52.128;5.434;2022-10-30T03:44:10;11.48;;;5.60;;
71715;SDS011;59568;52.128;5.434;2022-10-30T03:46:39;8.57;;;4.63;;
71715;SDS011;59568;52.128;5.434;2022-10-30T03:49:06;9.18;;;4.30;;
71715;SDS011;59568;52.128;5.434;2022-10-30T03:51:32;5.67;;;3.57;;
71715;SDS011;59568;52.128;5.434;2022-10-30T03:53:59;7.82;;;3.38;;
71715;SDS011;59568;52.128;5.434;2022-10-30T03:56:26;9.30;;;4.18;;
71715;SDS011;59568;52.128;5.434;2022-10-30T03:58:54;6.40;;;3.90;;
71715;SDS011;59568;52.128;5.434;2022-10-30T04:01:21;8.25;;;3.80;;
71715;SDS011;59568;52.128;5.434;2022-10-30T04:03:48;7.03;;;3.87;;
71715;SDS011;59568;52.128;5.434;2022-10-30T04:06:15;11.23;;;4.85;;
71715;SDS011;59568;52.128;5.434;2022-10-30T04:08:42;6.20;;;4.32;;
71715;SDS011;59568;52.128;5.434;2022-10-30T04:11:09;9.10;;;4.78;;
71715;SDS011;59568;52.128;5.434;2022-10-30T04:13:39;9.27;;;5.25;;
71715;SDS011;59568;52.128;5.434;2022-10-30T04:16:06;7.33;;;4.23;;
71715;SDS011;59568;52.128;5.434;2022-10-30T04:18:33;8.70;;;4.43;;
71715;SDS011;59568;52.128;5.434;2022-10-30T04:21:00;13.52;;;5.63;;
71715;SDS011;59568;52.128;5.434;2022-10-30T04:23:26;11.38;;;5.32;;
71715;SDS011;59568;52.128;5.434;2022-10-30T04:25:53;10.23;;;4.53;;
71715;SDS011;59568;52.128;5.434;2022-10-30T04:28:20;8.37;;;4.37;;
71715;SDS011;59568;52.128;5.434;2022-10-30T04:30:47;9.30;;;4.60;;
71715;SDS011;59568;52.128;5.434;2022-10-30T04:33:14;7.35;;;4.20;;
71715;SDS011;59568;52.128;5.434;2022-10-30T04:35:41;8.13;;;4.55;;
71715;SDS011;59568;52.128;5.434;2022-10-30T04:38:12;11.00;;;5.35;;
71715;SDS011;59568;52.128;5.434;2022-10-30T04:40:41;14.03;;;6.00;;
71715;SDS011;59568;52.128;5.434;2022-10-30T04:43:09;17.23;;;6.53;;
71715;SDS011;59568;52.128;5.434;2022-10-30T04:45:36;10.68;;;5.90;;
71715;SDS011;59568;52.128;5.434;2022-10-30T04:48:04;10.27;;;5.70;;
71715;SDS011;59568;52.128;5.434;2022-10-30T04:50:33;13.18;;;5.90;;
71715;SDS011;59568;52.128;5.434;2022-10-30T04:53:05;10.87;;;5.97;;
71715;SDS011;59568;52.128;5.434;2022-10-30T04:55:34;11.05;;;5.07;;
71715;SDS011;59568;52.128;5.434;2022-10-30T04:58:01;11.05;;;5.38;;
71715;SDS011;59568;52.128;5.434;2022-10-30T05:00:34;11.48;;;5.60;;
71715;SDS011;59568;52.128;5.434;2022-10-30T05:03:01;14.50;;;5.53;;
71715;SDS011;59568;52.128;5.434;2022-10-30T05:05:28;8.20;;;4.93;;
71715;SDS011;59568;52.128;5.434;2022-10-30T05:07:56;9.13;;;4.88;;
71715;SDS011;59568;52.128;5.434;2022-10-30T05:10:24;11.43;;;5.15;;
71715;SDS011;59568;52.128;5.434;2022-10-30T05:12:51;9.55;;;5.50;;
71715;SDS011;59568;52.128;5.434;2022-10-30T05:15:22;10.93;;;5.20;;
71715;SDS011;59568;52.128;5.434;2022-10-30T05:17:52;9.40;;;5.23;;
71715;SDS011;59568;52.128;5.434;2022-10-30T05:20:19;8.73;;;4.47;;
71715;SDS011;59568;52.128;5.434;2022-10-30T05:22:53;7.43;;;4.57;;
71715;SDS011;59568;52.128;5.434;2022-10-30T05:25:21;9.93;;;4.70;;
71715;SDS011;59568;52.128;5.434;2022-10-30T05:27:48;6.53;;;4.10;;
71715;SDS011;59568;52.128;5.434;2022-10-30T05:30:15;8.17;;;4.47;;
71715;SDS011;59568;52.128;5.434;2022-10-30T05:32:43;9.02;;;4.65;;
71715;SDS011;59568;52.128;5.434;2022-10-30T05:35:09;6.20;;;4.85;;
71715;SDS011;59568;52.128;5.434;2022-10-30T05:37:36;9.40;;;5.57;;
71715;SDS011;59568;52.128;5.434;2022-10-30T05:40:03;8.10;;;4.68;;
71715;SDS011;59568;52.128;5.434;2022-10-30T05:42:31;8.83;;;5.23;;
71715;SDS011;59568;52.128;5.434;2022-10-30T05:44:57;7.82;;;4.25;;
71715;SDS011;59568;52.128;5.434;2022-10-30T05:47:26;7.55;;;4.57;;
71715;SDS011;59568;52.128;5.434;2022-10-30T05:49:53;9.20;;;4.57;;
71715;SDS011;59568;52.128;5.434;2022-10-30T05:52:20;8.95;;;4.80;;
71715;SDS011;59568;52.128;5.434;2022-10-30T05:54:50;9.10;;;4.33;;
71715;SDS011;59568;52.128;5.434;2022-10-30T05:57:17;9.13;;;5.13;;
71715;SDS011;59568;52.128;5.434;2022-10-30T05:59:44;8.63;;;4.80;;
71715;SDS011;59568;52.128;5.434;2022-10-30T06:02:11;11.65;;;5.00;;
71715;SDS011;59568;52.128;5.434;2022-10-30T06:04:37;12.45;;;4.88;;
71715;SDS011;59568;52.128;5.434;2022-10-30T06:07:04;10.23;;;5.10;;
71715;SDS011;59568;52.128;5.434;2022-10-30T06:09:31;10.27;;;5.95;;
71715;SDS011;59568;52.128;5.434;2022-10-30T06:11:58;12.32;;;6.03;;
71715;SDS011;59568;52.128;5.434;2022-10-30T06:14:25;13.77;;;6.10;;
71715;SDS011;59568;52.128;5.434;2022-10-30T06:16:52;12.20;;;5.97;;
71715;SDS011;59568;52.128;5.434;2022-10-30T06:19:19;18.17;;;6.73;;
71715;SDS011;59568;52.128;5.434;2022-10-30T06:21:46;13.55;;;7.53;;
71715;SDS011;59568;52.128;5.434;2022-10-30T06:24:13;11.77;;;6.00;;
71715;SDS011;59568;52.128;5.434;2022-10-30T06:26:40;13.73;;;6.57;;
71715;SDS011;59568;52.128;5.434;2022-10-30T06:29:06;15.68;;;6.97;;
71715;SDS011;59568;52.128;5.434;2022-10-30T06:31:34;12.47;;;7.10;;
71715;SDS011;59568;52.128;5.434;2022-10-30T06:34:00;14.40;;;7.28;;
71715;SDS011;59568;52.128;5.434;2022-10-30T06:36:27;13.52;;;6.60;;
71715;SDS011;59568;52.128;5.434;2022-10-30T06:38:54;16.08;;;6.80;;
71715;SDS011;59568;52.128;5.434;2022-10-30T06:41:21;15.55;;;6.88;;
71715;SDS011;59568;52.128;5.434;2022-10-30T06:43:55;15.47;;;6.87;;
71715;SDS011;59568;52.128;5.434;2022-10-30T06:46:22;12.10;;;6.35;;
71715;SDS011;59568;52.128;5.434;2022-10-30T06:48:55;12.50;;;6.38;;
71715;SDS011;59568;52.128;5.434;2022-10-30T06:51:23;11.10;;;6.57;;
71715;SDS011;59568;52.128;5.434;2022-10-30T06:53:50;9.85;;;5.63;;
71715;SDS011;59568;52.128;5.434;2022-10-30T06:56:17;16.80;;;5.97;;
71715;SDS011;59568;52.128;5.434;2022-10-30T06:58:43;10.88;;;5.80;;
71715;SDS011;59568;52.128;5.434;2022-10-30T07:01:10;12.68;;;6.07;;
71715;SDS011;59568;52.128;5.434;2022-10-30T07:03:37;11.30;;;5.65;;
71715;SDS011;59568;52.128;5.434;2022-10-30T07:06:04;9.65;;;5.88;;
71715;SDS011;59568;52.128;5.434;2022-10-30T07:08:31;13.33;;;6.27;;
71715;SDS011;59568;52.128;5.434;2022-10-30T07:10:59;13.70;;;5.90;;
71715;SDS011;59568;52.128;5.434;2022-10-30T07:13:32;11.25;;;5.45;;
71715;SDS011;59568;52.128;5.434;2022-10-30T07:15:59;9.35;;;4.90;;
71715;SDS011;59568;52.128;5.434;2022-10-30T07:18:26;10.07;;;4.25;;
71715;SDS011;59568;52.128;5.434;2022-10-30T07:20:53;9.87;;;4.50;;
71715;SDS011;59568;52.128;5.434;2022-10-30T07:23:24;8.98;;;4.97;;
71715;SDS011;59568;52.128;5.434;2022-10-30T07:25:51;9.25;;;5.90;;
71715;SDS011;59568;52.128;5.434;2022-10-30T07:28:18;10.55;;;5.43;;
71715;SDS011;59568;52.128;5.434;2022-10-30T07:30:45;11.45;;;5.72;;
71715;SDS011;59568;52.128;5.434;2022-10-30T07:33:11;13.13;;;6.40;;
71715;SDS011;59568;52.128;5.434;2022-10-30T07:35:38;11.15;;;5.55;;
71715;SDS011;59568;52.128;5.434;2022-10-30T07:38:09;11.70;;;5.80;;
71715;SDS011;59568;52.128;5.434;2022-10-30T07:40:37;9.93;;;4.68;;
71715;SDS011;59568;52.128;5.434;2022-10-30T07:43:04;9.77;;;5.18;;
71715;SDS011;59568;52.128;5.434;2022-10-30T07:45:31;10.93;;;5.57;;
71715;SDS011;59568;52.128;5.434;2022-10-30T07:47:58;10.25;;;5.60;;
71715;SDS011;59568;52.128;5.434;2022-10-30T07:50:26;12.80;;;6.47;;
71715;SDS011;59568;52.128;5.434;2022-10-30T07:52:53;15.10;;;6.45;;
71715;SDS011;59568;52.128;5.434;2022-10-30T07:55:20;13.20;;;6.82;;
71715;SDS011;59568;52.128;5.434;2022-10-30T07:57:47;11.97;;;6.77;;
71715;SDS011;59568;52.128;5.434;2022-10-30T08:00:15;13.02;;;7.65;;
71715;SDS011;59568;52.128;5.434;2022-10-30T08:02:42;14.30;;;6.65;;
71715;SDS011;59568;52.128;5.434;2022-10-30T08:05:09;13.90;;;7.78;;
71715;SDS011;59568;52.128;5.434;2022-10-30T08:07:36;16.65;;;7.72;;
71715;SDS011;59568;52.128;5.434;2022-10-30T08:10:05;12.97;;;7.10;;
71715;SDS011;59568;52.128;5.434;2022-10-30T08:12:33;19.80;;;7.68;;
71715;SDS011;59568;52.128;5.434;2022-10-30T08:15:00;15.52;;;8.18;;
71715;SDS011;59568;52.128;5.434;2022-10-30T08:17:27;23.98;;;8.50;;
71715;SDS011;59568;52.128;5.434;2022-10-30T08:19:54;14.57;;;8.50;;
71715;SDS011;59568;52.128;5.434;2022-10-30T08:22:22;18.80;;;8.57;;
71715;SDS011;59568;52.128;5.434;2022-10-30T08:24:50;13.25;;;7.95;;
71715;SDS011;59568;52.128;5.434;2022-10-30T08:27:17;16.02;;;8.05;;
71715;SDS011;59568;52.128;5.434;2022-10-30T08:29:44;18.98;;;8.27;;
71715;SDS011;59568;52.128;5.434;2022-10-30T08:32:10;17.30;;;8.70;;
71715;SDS011;59568;52.128;5.434;2022-10-30T08:34:37;15.13;;;8.03;;
71715;SDS011;59568;52.128;5.434;2022-10-30T08:37:05;17.02;;;7.93;;
71715;SDS011;59568;52.128;5.434;2022-10-30T08:39:33;17.45;;;8.35;;
71715;SDS011;59568;52.128;5.434;2022-10-30T08:42:00;16.52;;;8.40;;
71715;SDS011;59568;52.128;5.434;2022-10-30T08:44:27;17.90;;;8.13;;
71715;SDS011;59568;52.128;5.434;2022-10-30T08:46:54;17.27;;;8.20;;
71715;SDS011;59568;52.128;5.434;2022-10-30T08:49:20;15.65;;;8.30;;
71715;SDS011;59568;52.128;5.434;2022-10-30T08:51:47;16.95;;;8.63;;
71715;SDS011;59568;52.128;5.434;2022-10-30T08:54:14;15.77;;;8.73;;
71715;SDS011;59568;52.128;5.434;2022-10-30T08:56:41;17.13;;;9.15;;
71715;SDS011;59568;52.128;5.434;2022-10-30T08:59:08;15.53;;;8.60;;
71715;SDS011;59568;52.128;5.434;2022-10-30T09:01:35;15.07;;;8.50;;
71715;SDS011;59568;52.128;5.434;2022-10-30T09:04:02;17.45;;;9.30;;
71715;SDS011;59568;52.128;5.434;2022-10-30T09:06:29;13.52;;;8.18;;
71715;SDS011;59568;52.128;5.434;2022-10-30T09:08:57;19.95;;;8.35;;
71715;SDS011;59568;52.128;5.434;2022-10-30T09:11:24;25.90;;;8.00;;
71715;SDS011;59568;52.128;5.434;2022-10-30T09:13:51;18.77;;;8.52;;
71715;SDS011;59568;52.128;5.434;2022-10-30T09:16:18;20.10;;;8.43;;
71715;SDS011;59568;52.128;5.434;2022-10-30T09:18:44;19.25;;;8.80;;
71715;SDS011;59568;52.128;5.434;2022-10-30T09:21:11;15.70;;;8.07;;
71715;SDS011;59568;52.128;5.434;2022-10-30T09:23:38;17.03;;;8.07;;
71715;SDS011;59568;52.128;5.434;2022-10-30T09:26:05;14.27;;;7.53;;
71715;SDS011;59568;52.128;5.434;2022-10-30T09:28:32;17.58;;;7.68;;
71715;SDS011;59568;52.128;5.434;2022-10-30T09:30:59;16.90;;;8.10;;
71715;SDS011;59568;52.128;5.434;2022-10-30T09:33:26;16.50;;;8.13;;
71715;SDS011;59568;52.128;5.434;2022-10-30T09:35:53;15.50;;;7.47;;
71715;SDS011;59568;52.128;5.434;2022-10-30T09:38:20;16.08;;;8.68;;
71715;SDS011;59568;52.128;5.434;2022-10-30T09:40:52;17.02;;;8.88;;
71715;SDS011;59568;52.128;5.434;2022-10-30T09:43:40;17.98;;;8.48;;
71715;SDS011;59568;52.128;5.434;2022-10-30T10:00:12;16.08;;;8.77;;
71715;SDS011;59568;52.128;5.434;2022-10-30T10:02:49;16.20;;;8.23;;
71715;SDS011;59568;52.128;5.434;2022-10-30T10:05:28;16.73;;;8.60;;
71715;SDS011;59568;52.128;5.434;2022-10-30T10:08:03;11.70;;;7.78;;
71715;SDS011;59568;52.128;5.434;2022-10-30T10:10:39;13.07;;;7.55;;
71715;SDS011;59568;52.128;5.434;2022-10-30T10:16:54;17.50;;;7.60;;
71715;SDS011;59568;52.128;5.434;2022-10-30T10:21:56;20.10;;;7.07;;
71715;SDS011;59568;52.128;5.434;2022-10-30T10:24:26;16.40;;;7.22;;
71715;SDS011;59568;52.128;5.434;2022-10-30T10:38:05;17.92;;;7.03;;
71715;SDS011;59568;52.128;5.434;2022-10-30T10:46:23;14.38;;;7.13;;
71715;SDS011;59568;52.128;5.434;2022-10-30T10:51:40;14.23;;;7.82;;
71715;SDS011;59568;52.128;5.434;2022-10-30T10:54:11;16.85;;;8.82;;
71715;SDS011;59568;52.128;5.434;2022-10-30T10:56:44;14.43;;;7.67;;
71715;SDS011;59568;52.128;5.434;2022-10-30T10:59:35;16.05;;;7.82;;
71715;SDS011;59568;52.128;5.434;2022-10-30T11:05:01;19.92;;;7.80;;
71715;SDS011;59568;52.128;5.434;2022-10-30T11:07:43;18.08;;;7.72;;
71715;SDS011;59568;52.128;5.434;2022-10-30T11:10:14;16.10;;;7.65;;
71715;SDS011;59568;52.128;5.434;2022-10-30T11:12:43;13.57;;;7.07;;
71715;SDS011;59568;52.128;5.434;2022-10-30T11:18:06;18.05;;;7.63;;
71715;SDS011;59568;52.128;5.434;2022-10-30T11:20:36;18.00;;;7.65;;
71715;SDS011;59568;52.128;5.434;2022-10-30T11:23:03;17.17;;;7.90;;
71715;SDS011;59568;52.128;5.434;2022-10-30T11:26:01;20.75;;;8.10;;
71715;SDS011;59568;52.128;5.434;2022-10-30T11:28:37;15.23;;;7.47;;
71715;SDS011;59568;52.128;5.434;2022-10-30T11:31:26;12.50;;;7.57;;
71715;SDS011;59568;52.128;5.434;2022-10-30T11:36:53;15.65;;;7.35;;
71715;SDS011;59568;52.128;5.434;2022-10-30T11:39:21;17.05;;;7.70;;
71715;SDS011;59568;52.128;5.434;2022-10-30T11:41:55;18.17;;;8.15;;
71715;SDS011;59568;52.128;5.434;2022-10-30T11:44:32;16.25;;;7.00;;
71715;SDS011;59568;52.128;5.434;2022-10-30T11:47:00;17.88;;;7.72;;
71715;SDS011;59568;52.128;5.434;2022-10-30T11:49:36;14.35;;;7.68;;
71715;SDS011;59568;52.128;5.434;2022-10-30T11:52:07;13.88;;;7.63;;
71715;SDS011;59568;52.128;5.434;2022-10-30T11:54:36;18.20;;;7.35;;
71715;SDS011;59568;52.128;5.434;2022-10-30T11:57:50;15.85;;;7.25;;
71715;SDS011;59568;52.128;5.434;2022-10-30T12:00:29;20.10;;;7.90;;
71715;SDS011;59568;52.128;5.434;2022-10-30T12:02:57;16.60;;;6.32;;
71715;SDS011;59568;52.128;5.434;2022-10-30T12:05:33;12.98;;;7.05;;
71715;SDS011;59568;52.128;5.434;2022-10-30T12:10:33;20.55;;;6.90;;
71715;SDS011;59568;52.128;5.434;2022-10-30T12:13:11;14.55;;;6.28;;
71715;SDS011;59568;52.128;5.434;2022-10-30T12:15:40;17.07;;;6.93;;
71715;SDS011;59568;52.128;5.434;2022-10-30T12:18:14;12.63;;;7.38;;
71715;SDS011;59568;52.128;5.434;2022-10-30T12:20:47;13.27;;;7.35;;
71715;SDS011;59568;52.128;5.434;2022-10-30T12:23:19;13.93;;;6.45;;
71715;SDS011;59568;52.128;5.434;2022-10-30T12:25:53;18.48;;;7.68;;
71715;SDS011;59568;52.128;5.434;2022-10-30T12:28:24;14.10;;;6.85;;
71715;SDS011;59568;52.128;5.434;2022-10-30T12:31:55;15.40;;;6.95;;
71715;SDS011;59568;52.128;5.434;2022-10-30T12:39:46;16.55;;;5.82;;
71715;SDS011;59568;52.128;5.434;2022-10-30T12:42:30;12.00;;;6.55;;
71715;SDS011;59568;52.128;5.434;2022-10-30T12:45:07;13.50;;;6.40;;
71715;SDS011;59568;52.128;5.434;2022-10-30T12:48:16;11.02;;;5.75;;
71715;SDS011;59568;52.128;5.434;2022-10-30T12:50:41;15.00;;;6.15;;
71715;SDS011;59568;52.128;5.434;2022-10-30T12:54:20;17.05;;;7.03;;
71715;SDS011;59568;52.128;5.434;2022-10-30T12:56:36;13.18;;;6.70;;
71715;SDS011;59568;52.128;5.434;2022-10-30T13:07:46;15.55;;;6.47;;
71715;SDS011;59568;52.128;5.434;2022-10-30T13:10:31;11.53;;;6.53;;
71715;SDS011;59568;52.128;5.434;2022-10-30T13:13:08;14.80;;;6.55;;
71715;SDS011;59568;52.128;5.434;2022-10-30T13:15:45;15.13;;;6.60;;
71715;SDS011;59568;52.128;5.434;2022-10-30T13:18:16;15.52;;;6.68;;
71715;SDS011;59568;52.128;5.434;2022-10-30T13:23:30;16.40;;;6.53;;
71715;SDS011;59568;52.128;5.434;2022-10-30T13:26:06;13.50;;;5.93;;
71715;SDS011;59568;52.128;5.434;2022-10-30T13:28:54;15.85;;;7.00;;
71715;SDS011;59568;52.128;5.434;2022-10-30T13:31:30;13.70;;;7.60;;
71715;SDS011;59568;52.128;5.434;2022-10-30T13:34:20;13.68;;;6.50;;
71715;SDS011;59568;52.128;5.434;2022-10-30T13:36:59;18.52;;;7.47;;
71715;SDS011;59568;52.128;5.434;2022-10-30T13:42:43;15.85;;;7.03;;
71715;SDS011;59568;52.128;5.434;2022-10-30T13:45:46;13.85;;;6.88;;
71715;SDS011;59568;52.128;5.434;2022-10-30T13:54:20;17.23;;;8.10;;
71715;SDS011;59568;52.128;5.434;2022-10-30T13:56:58;16.98;;;7.72;;
71715;SDS011;59568;52.128;5.434;2022-10-30T14:08:21;27.27;;;16.45;;
71715;SDS011;59568;52.128;5.434;2022-10-30T14:10:56;19.83;;;10.57;;
71715;SDS011;59568;52.128;5.434;2022-10-30T14:19:08;17.60;;;8.07;;
71715;SDS011;59568;52.128;5.434;2022-10-30T14:24:21;13.73;;;7.65;;
71715;SDS011;59568;52.128;5.434;2022-10-30T14:32:00;19.40;;;7.93;;
71715;SDS011;59568;52.128;5.434;2022-10-30T14:35:23;15.75;;;8.00;;
71715;SDS011;59568;52.128;5.434;2022-10-30T14:39:49;17.55;;;8.00;;
71715;SDS011;59568;52.128;5.434;2022-10-30T14:50:19;16.98;;;8.23;;
71715;SDS011;59568;52.128;5.434;2022-10-30T14:58:34;18.70;;;9.40;;
71715;SDS011;59568;52.128;5.434;2022-10-30T15:03:50;17.13;;;9.35;;
71715;SDS011;59568;52.128;5.434;2022-10-30T15:10:24;17.55;;;8.13;;
71715;SDS011;59568;52.128;5.434;2022-10-30T15:15:12;15.02;;;8.40;;
71715;SDS011;59568;52.128;5.434;2022-10-30T15:17:43;16.45;;;8.52;;
71715;SDS011;59568;52.128;5.434;2022-10-30T15:20:25;22.02;;;9.48;;
71715;SDS011;59568;52.128;5.434;2022-10-30T15:22:59;16.88;;;9.02;;
71715;SDS011;59568;52.128;5.434;2022-10-30T15:25:32;15.60;;;9.10;;
71715;SDS011;59568;52.128;5.434;2022-10-30T15:28:03;16.48;;;8.60;;
71715;SDS011;59568;52.128;5.434;2022-10-30T15:30:31;16.02;;;7.70;;
71715;SDS011;59568;52.128;5.434;2022-10-30T15:32:58;17.40;;;8.73;;
71715;SDS011;59568;52.128;5.434;2022-10-30T15:35:26;18.45;;;8.55;;
71715;SDS011;59568;52.128;5.434;2022-10-30T15:38:01;16.83;;;9.35;;
71715;SDS011;59568;52.128;5.434;2022-10-30T15:40:29;21.88;;;8.30;;
71715;SDS011;59568;52.128;5.434;2022-10-30T15:42:57;20.73;;;9.57;;
71715;SDS011;59568;52.128;5.434;2022-10-30T15:45:31;21.55;;;9.15;;
71715;SDS011;59568;52.128;5.434;2022-10-30T15:48:07;19.45;;;8.52;;
71715;SDS011;59568;52.128;5.434;2022-10-30T15:50:40;18.67;;;7.80;;
71715;SDS011;59568;52.128;5.434;2022-10-30T15:53:15;15.20;;;7.90;;
71715;SDS011;59568;52.128;5.434;2022-10-30T15:55:44;14.80;;;7.13;;
71715;SDS011;59568;52.128;5.434;2022-10-30T15:58:14;16.60;;;6.82;;
71715;SDS011;59568;52.128;5.434;2022-10-30T16:00:53;12.73;;;7.38;;
71715;SDS011;59568;52.128;5.434;2022-10-30T16:03:27;17.13;;;7.67;;
71715;SDS011;59568;52.128;5.434;2022-10-30T16:08:53;17.70;;;6.97;;
71715;SDS011;59568;52.128;5.434;2022-10-30T16:11:20;18.60;;;7.38;;
71715;SDS011;59568;52.128;5.434;2022-10-30T16:13:48;13.00;;;6.55;;
71715;SDS011;59568;52.128;5.434;2022-10-30T16:16:26;14.60;;;6.83;;
71715;SDS011;59568;52.128;5.434;2022-10-30T16:18:57;14.10;;;7.55;;
71715;SDS011;59568;52.128;5.434;2022-10-30T16:21:29;16.45;;;8.90;;
71715;SDS011;59568;52.128;5.434;2022-10-30T16:23:58;18.60;;;8.75;;
71715;SDS011;59568;52.128;5.434;2022-10-30T16:26:31;15.88;;;8.15;;
71715;SDS011;59568;52.128;5.434;2022-10-30T16:29:12;14.50;;;6.83;;
71715;SDS011;59568;52.128;5.434;2022-10-30T16:31:44;14.00;;;6.72;;
71715;SDS011;59568;52.128;5.434;2022-10-30T16:34:20;14.02;;;6.20;;
71715;SDS011;59568;52.128;5.434;2022-10-30T16:36:50;14.50;;;5.32;;
71715;SDS011;59568;52.128;5.434;2022-10-30T16:39:18;10.75;;;4.95;;
71715;SDS011;59568;52.128;5.434;2022-10-30T16:41:48;15.90;;;5.57;;
71715;SDS011;59568;52.128;5.434;2022-10-30T16:44:17;16.88;;;5.22;;
71715;SDS011;59568;52.128;5.434;2022-10-30T16:47:05;13.80;;;5.13;;
71715;SDS011;59568;52.128;5.434;2022-10-30T16:49:53;9.73;;;5.10;;
71715;SDS011;59568;52.128;5.434;2022-10-30T16:52:30;14.63;;;5.80;;
71715;SDS011;59568;52.128;5.434;2022-10-30T16:55:03;10.23;;;5.20;;
71715;SDS011;59568;52.128;5.434;2022-10-30T16:57:36;9.50;;;4.18;;
71715;SDS011;59568;52.128;5.434;2022-10-30T17:00:19;12.18;;;4.80;;
71715;SDS011;59568;52.128;5.434;2022-10-30T17:02:53;9.80;;;3.97;;
71715;SDS011;59568;52.128;5.434;2022-10-30T17:05:22;15.98;;;5.28;;
71715;SDS011;59568;52.128;5.434;2022-10-30T17:07:55;9.03;;;3.73;;
71715;SDS011;59568;52.128;5.434;2022-10-30T17:10:31;10.30;;;2.72;;
71715;SDS011;59568;52.128;5.434;2022-10-30T17:18:51;9.18;;;2.80;;
71715;SDS011;59568;52.128;5.434;2022-10-30T17:21:27;6.90;;;2.15;;
71715;SDS011;59568;52.128;5.434;2022-10-30T17:24:02;6.60;;;2.53;;
71715;SDS011;59568;52.128;5.434;2022-10-30T17:26:33;7.13;;;2.38;;
71715;SDS011;59568;52.128;5.434;2022-10-30T17:29:03;11.77;;;3.20;;